NCAR-RAP Real-Time Weather Data

Output produced by METARs form (12 August 2020  18:49 UTC)
found at http://weather.rap.ucar.edu/surface/
 
KLAS 121756Z 19011G18KT 10SM CLR 37/M06 A2995 RMK AO2 SLP110 T03671061 10367 20283 50004
KLAS 121656Z 19008KT 10SM CLR 34/M01 A2996 RMK AO2 SLP112 T03441011
KLAS 121556Z 19008KT 10SM CLR 33/00 A2995 RMK AO2 SLP109 T03280000
KLAS 121456Z 20009KT 10SM CLR 31/M01 A2994 RMK AO2 SLP107 T03061011 53014
KLAS 121356Z 20010KT 10SM CLR 29/M01 A2992 RMK AO2 SLP101 T02941011
KLAS 121256Z 20007KT 10SM CLR 28/M03 A2991 RMK AO2 SLP096 T02831028
KLAS 121156Z 20009KT 10SM CLR 29/M06 A2989 RMK AO2 SLP090 T02891061 10317 20283 53007
KLAS 121056Z 19008KT 10SM CLR 29/M06 A2988 RMK AO2 SLP086 T02941056
KLAS 120956Z 19006KT 10SM CLR 31/M06 A2988 RMK AO2 SLP085 T03061056
KLAS 120856Z 21005KT 10SM CLR 31/M07 A2987 RMK AO2 SLP082 T03111067 50005
KLAS 120756Z 19005KT 10SM CLR 31/M13 A2987 RMK AO2 SLP084 T03061133 404110289
KLAS 120656Z 21004KT 10SM CLR 31/M13 A2987 RMK AO2 SLP081 T03061133
KLAS 120556Z 22004KT 10SM CLR 32/M12 A2985 RMK AO2 SLP077 T03171122 10394 20317 51015
KLAS 120456Z 20004KT 10SM CLR 33/M13 A2985 RMK AO2 SLP074 T03331133
KLAS 120356Z 25008KT 10SM CLR 36/M12 A2983 RMK AO2 SLP069 T03561117
KLAS 120256Z 24007KT 10SM CLR 37/M11 A2981 RMK AO2 SLP062 T03671106 55004
KLAS 120156Z 26010KT 10SM FEW150 38/M10 A2980 RMK AO2 SLP060 T03781100
KLAS 120056Z 21007G17KT 10SM FEW150 39/M11 A2981 RMK AO2 SLP062 T03891111
KLAS 112356Z 23014G20KT 10SM FEW150 39/M12 A2982 RMK AO2 SLP065 T03941117 10411 20367 56014
KLAS 112256Z 24017G29KT 10SM FEW150 40/M09 A2983 RMK AO2 PK WND 24029/2248 SLP069 T04001089
KLAS 112156Z 22013G26KT 10SM SCT150 40/M04 A2984 RMK AO2 PK WND 26026/2150 SLP071 T04001039
KLAS 112056Z 22010G18KT 10SM SCT150 41/M02 A2986 RMK AO2 SLP078 T04061017 58017
KLAS 111956Z 17010G21KT 10SM SCT150 39/02 A2988 RMK AO2 SLP085 T03890017
KLAS 111856Z VRB06KT 10SM SCT150 38/02 A2991 RMK AO2 SLP095 T03780017
KLAS 111756Z 20007KT 10SM SCT150 38/M03 A2992 RMK AO2 SLP097 T03781033 10378 20289 58000
KLAS 111656Z 17007KT 10SM SCT150 36/M07 A2992 RMK AO2 SLP098 T03561067
KLAS 111556Z VRB04KT 10SM SCT150 34/M05 A2992 RMK AO2 SLP099 T03391050
KLAS 111456Z 11010KT 10SM SCT150 31/M02 A2992 RMK AO2 SLP099 T03111017 53014
KLAS 111356Z 21006KT 10SM SCT150 29/M04 A2990 RMK AO2 SLP093 ACC E-S T02941044
KLAS 111256Z 21007KT 10SM FEW150 30/M05 A2989 RMK AO2 SLP089 ACC E T03001050
KLAS 111156Z 19005KT 10SM CLR 29/M03 A2987 RMK AO2 SLP084 T02891033 10339 20289 51004
KLAS 111056Z 22005KT 10SM CLR 30/M03 A2987 RMK AO2 SLP084 T03001033
KLAS 110956Z 27003KT 10SM CLR 31/M04 A2987 RMK AO2 SLP081 T03111039
KLAS 110856Z 24007KT 10SM CLR 32/M04 A2986 RMK AO2 SLP079 T03221044 51002
KLAS 110756Z 22009KT 10SM CLR 33/M05 A2986 RMK AO2 SLP077 T03281050 404060256
KLAS 110656Z 22007KT 10SM CLR 33/M04 A2986 RMK AO2 SLP079 T03331044
KLAS 110556Z 21006KT 10SM CLR 33/M06 A2986 RMK AO2 SLP078 T03281056 10406 20328 51011
KLAS 110456Z 23006KT 10SM CLR 36/M07 A2985 RMK AO2 SLP076 T03561067
KLAS 110356Z 23006KT 10SM CLR 36/M06 A2984 RMK AO2 SLP071 T03611056
KLAS 110256Z 22004KT 10SM CLR 37/M09 A2982 RMK AO2 SLP067 T03721094 55004
KLAS 110156Z 22007G15KT 10SM CLR 39/M08 A2981 RMK AO2 SLP064 T03891083
KLAS 110056Z 25009G14KT 10SM CLR 39/M06 A2982 RMK AO2 SLP067 T03941061
KLAS 102356Z VRB04KT 10SM CLR 40/M05 A2983 RMK AO2 SLP071 T04001050 10406 20350 56021
KLAS 102256Z 07009KT 10SM CLR 40/M04 A2985 RMK AO2 SLP077 T04001044
KLAS 102156Z 10009G15KT 10SM CLR 39/M04 A2987 RMK AO2 SLP085 T03941039
KLAS 102056Z 07006KT 10SM CLR 39/M04 A2990 RMK AO2 SLP093 T03941039 58022
KLAS 101956Z 00000KT 10SM CLR 38/M04 A2993 RMK AO2 SLP102 T03781044
KLAS 101856Z VRB04KT 10SM CLR 37/M05 A2995 RMK AO2 SLP111 T03721050